Los Osos, California
Current Conditions -  °F | °C
As of 9:56 AM on Thursday 27 Nov 2014 (Local Time) from KSBP Reporting Station
Clear Clear  
Wind Chill: 66°   Ceiling: Unl
Heat Index: 66°   Visibility: 10mi
Dew Point: 41°   Wind: 0mph
Humidity: 40%   Direction: NA
Pressure: 30.13"   Gusts: NA
Location:  35.31°N, 120.83°W
Report Text: KSBP 271756Z 00000KT 10SM CLR 19/05 A3013 RMK AO2 SLP204 T01890050 10189 20056 50002
Loading
Personal Weather Stations






























Interactive Weather Map New forecast layout! Learn more

10-Day Weather Forecast

Advertisements
Track Severe Weather on mobile